KLWV/LWV METAR and TAF weather

Enter ICAO airport designator
Station Type Date Time Source
KLWV METAR 2022/05/24 10:53 UTC NOAA

KLWV 241053Z AUTO 04006KT 10SM CLR 13/11 A3015 RMK AO2 SLP209 T01280106


Station Type Date Time Source
KLWV Decoded METAR 2022/05/24 10:53 UTC NOAA

LAWRENCEVILLE-VINCENNES INTERNATIONAL , IL, United States (KLWV) 38-46N 87-36W 131M
May 24, 2022 - 06:53 AM EDT / 2022.05.24 1053 UTC
Wind: from the NE (040 degrees) at 7 MPH (6 KT):0
Visibility: 10 mile(s):0
Sky conditions: clear
Temperature: 55.0 F (12.8 C)
Dew Point: 51.1 F (10.6 C)
Relative Humidity: 86%
Pressure (altimeter): 30.15 in. Hg (1020 hPa)
ob: KLWV 241053Z AUTO 04006KT 10SM CLR 13/11 A3015 RMK AO2 SLP209 T01280106
cycle: 11

Station Type Date Time Source
KLWV TAF UTC NOAA

Error!

Example: see airport list